sensor_id;sensor_type;location;lat;lon;timestamp;temperature;humidity
43520;DHT22;46848;51.980;5.918;2023-02-15T00:00:16;8.30;73.70
43520;DHT22;46848;51.980;5.918;2023-02-15T00:02:41;8.30;73.80
43520;DHT22;46848;51.980;5.918;2023-02-15T00:05:08;8.30;73.90
43520;DHT22;46848;51.980;5.918;2023-02-15T00:07:34;8.20;73.90
43520;DHT22;46848;51.980;5.918;2023-02-15T00:09:59;8.20;73.80
43520;DHT22;46848;51.980;5.918;2023-02-15T00:12:25;8.20;73.90
43520;DHT22;46848;51.980;5.918;2023-02-15T00:14:50;8.10;73.90
43520;DHT22;46848;51.980;5.918;2023-02-15T00:17:16;8.00;74.00
43520;DHT22;46848;51.980;5.918;2023-02-15T00:19:42;8.10;74.20
43520;DHT22;46848;51.980;5.918;2023-02-15T00:22:07;8.10;74.10
43520;DHT22;46848;51.980;5.918;2023-02-15T00:24:33;8.00;74.10
43520;DHT22;46848;51.980;5.918;2023-02-15T00:26:59;8.00;74.10
43520;DHT22;46848;51.980;5.918;2023-02-15T00:29:24;8.00;74.20
43520;DHT22;46848;51.980;5.918;2023-02-15T00:31:50;8.00;74.20
43520;DHT22;46848;51.980;5.918;2023-02-15T00:34:20;8.00;74.20
43520;DHT22;46848;51.980;5.918;2023-02-15T00:36:45;8.00;74.20
43520;DHT22;46848;51.980;5.918;2023-02-15T00:39:12;8.00;74.10
43520;DHT22;46848;51.980;5.918;2023-02-15T00:41:38;8.00;74.20
43520;DHT22;46848;51.980;5.918;2023-02-15T00:44:04;8.00;74.10
43520;DHT22;46848;51.980;5.918;2023-02-15T00:46:30;8.00;74.20
43520;DHT22;46848;51.980;5.918;2023-02-15T00:48:56;8.00;74.20
43520;DHT22;46848;51.980;5.918;2023-02-15T00:51:21;8.00;74.20
43520;DHT22;46848;51.980;5.918;2023-02-15T00:53:48;8.00;74.30
43520;DHT22;46848;51.980;5.918;2023-02-15T00:56:14;7.90;74.30
43520;DHT22;46848;51.980;5.918;2023-02-15T00:58:39;7.80;74.40
43520;DHT22;46848;51.980;5.918;2023-02-15T01:01:08;7.80;74.50
43520;DHT22;46848;51.980;5.918;2023-02-15T01:03:34;7.70;74.60
43520;DHT22;46848;51.980;5.918;2023-02-15T01:06:00;7.70;74.70
43520;DHT22;46848;51.980;5.918;2023-02-15T01:08:26;7.70;74.80
43520;DHT22;46848;51.980;5.918;2023-02-15T01:10:52;7.70;74.80
43520;DHT22;46848;51.980;5.918;2023-02-15T01:13:18;7.70;74.80
43520;DHT22;46848;51.980;5.918;2023-02-15T01:15:44;7.70;74.70
43520;DHT22;46848;51.980;5.918;2023-02-15T01:18:11;7.70;74.80
43520;DHT22;46848;51.980;5.918;2023-02-15T01:20:38;7.70;74.80
43520;DHT22;46848;51.980;5.918;2023-02-15T01:23:06;7.70;74.90
43520;DHT22;46848;51.980;5.918;2023-02-15T01:25:34;7.60;74.80
43520;DHT22;46848;51.980;5.918;2023-02-15T01:28:00;7.60;74.80
43520;DHT22;46848;51.980;5.918;2023-02-15T01:30:26;7.60;74.80
43520;DHT22;46848;51.980;5.918;2023-02-15T01:32:52;7.60;74.80
43520;DHT22;46848;51.980;5.918;2023-02-15T01:35:17;7.50;74.80
43520;DHT22;46848;51.980;5.918;2023-02-15T01:37:43;7.50;74.80
43520;DHT22;46848;51.980;5.918;2023-02-15T01:40:14;7.60;74.90
43520;DHT22;46848;51.980;5.918;2023-02-15T01:42:41;7.50;74.90
43520;DHT22;46848;51.980;5.918;2023-02-15T01:45:26;7.50;74.80
43520;DHT22;46848;51.980;5.918;2023-02-15T01:52:58;7.50;74.80
43520;DHT22;46848;51.980;5.918;2023-02-15T01:55:27;7.40;74.80
43520;DHT22;46848;51.980;5.918;2023-02-15T01:57:54;7.40;74.80
43520;DHT22;46848;51.980;5.918;2023-02-15T02:00:20;7.40;74.80
43520;DHT22;46848;51.980;5.918;2023-02-15T02:02:49;7.40;74.80
43520;DHT22;46848;51.980;5.918;2023-02-15T02:05:16;7.40;74.90
43520;DHT22;46848;51.980;5.918;2023-02-15T02:07:44;7.40;74.90
43520;DHT22;46848;51.980;5.918;2023-02-15T02:10:14;7.40;75.60
43520;DHT22;46848;51.980;5.918;2023-02-15T02:12:42;7.40;75.00
43520;DHT22;46848;51.980;5.918;2023-02-15T02:15:09;7.30;75.00
43520;DHT22;46848;51.980;5.918;2023-02-15T02:17:49;7.30;74.90
43520;DHT22;46848;51.980;5.918;2023-02-15T02:24:18;7.30;75.00
43520;DHT22;46848;51.980;5.918;2023-02-15T02:27:02;7.20;75.00
43520;DHT22;46848;51.980;5.918;2023-02-15T02:34:42;7.10;75.20
43520;DHT22;46848;51.980;5.918;2023-02-15T02:40:30;7.10;75.30
43520;DHT22;46848;51.980;5.918;2023-02-15T02:43:29;7.10;75.20
43520;DHT22;46848;51.980;5.918;2023-02-15T02:46:09;7.00;75.20
43520;DHT22;46848;51.980;5.918;2023-02-15T02:48:37;7.00;75.30
43520;DHT22;46848;51.980;5.918;2023-02-15T02:51:03;6.90;75.40
43520;DHT22;46848;51.980;5.918;2023-02-15T02:53:30;6.90;75.40
43520;DHT22;46848;51.980;5.918;2023-02-15T02:56:01;6.90;75.40
43520;DHT22;46848;51.980;5.918;2023-02-15T02:58:46;6.90;75.50
43520;DHT22;46848;51.980;5.918;2023-02-15T03:03:51;6.90;75.50
43520;DHT22;46848;51.980;5.918;2023-02-15T03:06:51;6.90;75.50
43520;DHT22;46848;51.980;5.918;2023-02-15T03:09:28;6.90;75.60
43520;DHT22;46848;51.980;5.918;2023-02-15T03:12:11;6.90;75.50
43520;DHT22;46848;51.980;5.918;2023-02-15T03:14:40;6.90;75.60
43520;DHT22;46848;51.980;5.918;2023-02-15T03:17:08;6.80;75.50
43520;DHT22;46848;51.980;5.918;2023-02-15T03:19:36;6.80;75.50
43520;DHT22;46848;51.980;5.918;2023-02-15T03:22:15;6.80;75.50
43520;DHT22;46848;51.980;5.918;2023-02-15T03:25:02;6.80;75.50
43520;DHT22;46848;51.980;5.918;2023-02-15T03:27:45;6.80;75.50
43520;DHT22;46848;51.980;5.918;2023-02-15T03:30:12;6.80;75.60
43520;DHT22;46848;51.980;5.918;2023-02-15T03:32:40;6.70;75.60
43520;DHT22;46848;51.980;5.918;2023-02-15T03:35:08;6.70;75.60
43520;DHT22;46848;51.980;5.918;2023-02-15T03:43:16;6.70;75.70
43520;DHT22;46848;51.980;5.918;2023-02-15T03:45:46;6.60;75.70
43520;DHT22;46848;51.980;5.918;2023-02-15T03:50:57;6.60;75.70
43520;DHT22;46848;51.980;5.918;2023-02-15T03:53:44;6.60;75.80
43520;DHT22;46848;51.980;5.918;2023-02-15T03:56:11;6.60;75.80
43520;DHT22;46848;51.980;5.918;2023-02-15T03:58:36;6.60;75.80
43520;DHT22;46848;51.980;5.918;2023-02-15T04:01:37;6.60;75.80
43520;DHT22;46848;51.980;5.918;2023-02-15T04:04:25;6.50;75.90
43520;DHT22;46848;51.980;5.918;2023-02-15T04:06:51;6.50;75.90
43520;DHT22;46848;51.980;5.918;2023-02-15T04:09:17;6.50;76.00
43520;DHT22;46848;51.980;5.918;2023-02-15T04:12:01;6.40;75.90
43520;DHT22;46848;51.980;5.918;2023-02-15T04:14:26;6.40;76.50
43520;DHT22;46848;51.980;5.918;2023-02-15T04:17:11;6.40;76.00
43520;DHT22;46848;51.980;5.918;2023-02-15T04:19:36;6.40;76.00
43520;DHT22;46848;51.980;5.918;2023-02-15T04:22:21;6.30;76.00
43520;DHT22;46848;51.980;5.918;2023-02-15T04:25:05;6.30;76.10
43520;DHT22;46848;51.980;5.918;2023-02-15T04:27:38;6.30;76.10
43520;DHT22;46848;51.980;5.918;2023-02-15T04:30:05;6.30;76.10
43520;DHT22;46848;51.980;5.918;2023-02-15T04:32:31;6.30;76.10
43520;DHT22;46848;51.980;5.918;2023-02-15T04:34:56;6.20;76.20
43520;DHT22;46848;51.980;5.918;2023-02-15T04:37:22;6.30;76.20
43520;DHT22;46848;51.980;5.918;2023-02-15T04:39:47;6.30;76.20
43520;DHT22;46848;51.980;5.918;2023-02-15T04:42:13;6.30;76.30
43520;DHT22;46848;51.980;5.918;2023-02-15T04:44:39;6.20;76.30
43520;DHT22;46848;51.980;5.918;2023-02-15T04:47:05;6.30;76.90
43520;DHT22;46848;51.980;5.918;2023-02-15T04:49:30;6.20;76.20
43520;DHT22;46848;51.980;5.918;2023-02-15T04:51:56;6.20;76.20
43520;DHT22;46848;51.980;5.918;2023-02-15T04:54:21;6.20;76.30
43520;DHT22;46848;51.980;5.918;2023-02-15T04:56:47;6.20;76.30
43520;DHT22;46848;51.980;5.918;2023-02-15T04:59:13;6.20;76.30
43520;DHT22;46848;51.980;5.918;2023-02-15T05:01:38;6.20;76.30
43520;DHT22;46848;51.980;5.918;2023-02-15T05:04:04;6.10;76.30
43520;DHT22;46848;51.980;5.918;2023-02-15T05:06:30;6.10;76.30
43520;DHT22;46848;51.980;5.918;2023-02-15T05:08:56;6.10;76.30
43520;DHT22;46848;51.980;5.918;2023-02-15T05:11:24;6.10;76.30
43520;DHT22;46848;51.980;5.918;2023-02-15T05:13:50;6.10;76.40
43520;DHT22;46848;51.980;5.918;2023-02-15T05:16:15;6.10;76.60
43520;DHT22;46848;51.980;5.918;2023-02-15T05:18:41;6.00;76.70
43520;DHT22;46848;51.980;5.918;2023-02-15T05:21:06;6.00;76.70
43520;DHT22;46848;51.980;5.918;2023-02-15T05:23:32;5.90;76.70
43520;DHT22;46848;51.980;5.918;2023-02-15T05:25:57;5.90;76.80
43520;DHT22;46848;51.980;5.918;2023-02-15T05:28:41;5.80;76.90
43520;DHT22;46848;51.980;5.918;2023-02-15T05:31:16;5.80;76.90
43520;DHT22;46848;51.980;5.918;2023-02-15T05:33:43;5.70;77.00
43520;DHT22;46848;51.980;5.918;2023-02-15T05:36:09;5.70;77.10
43520;DHT22;46848;51.980;5.918;2023-02-15T05:38:35;5.70;77.20
43520;DHT22;46848;51.980;5.918;2023-02-15T05:41:08;5.70;77.20
43520;DHT22;46848;51.980;5.918;2023-02-15T05:43:34;5.70;77.10
43520;DHT22;46848;51.980;5.918;2023-02-15T05:46:00;5.70;77.10
43520;DHT22;46848;51.980;5.918;2023-02-15T05:48:26;5.70;77.00
43520;DHT22;46848;51.980;5.918;2023-02-15T05:51:10;5.70;77.00
43520;DHT22;46848;51.980;5.918;2023-02-15T05:53:38;5.70;76.90
43520;DHT22;46848;51.980;5.918;2023-02-15T05:56:06;5.70;76.90
43520;DHT22;46848;51.980;5.918;2023-02-15T05:58:35;5.60;76.90
43520;DHT22;46848;51.980;5.918;2023-02-15T06:01:18;5.70;77.10
43520;DHT22;46848;51.980;5.918;2023-02-15T06:03:44;5.60;77.10
43520;DHT22;46848;51.980;5.918;2023-02-15T06:06:11;5.60;77.10
43520;DHT22;46848;51.980;5.918;2023-02-15T06:08:37;5.60;77.10
43520;DHT22;46848;51.980;5.918;2023-02-15T06:11:04;5.60;77.10
43520;DHT22;46848;51.980;5.918;2023-02-15T06:13:30;5.60;77.10
43520;DHT22;46848;51.980;5.918;2023-02-15T06:15:56;5.60;77.10
43520;DHT22;46848;51.980;5.918;2023-02-15T06:18:21;5.50;77.00
43520;DHT22;46848;51.980;5.918;2023-02-15T06:20:47;5.60;77.60
43520;DHT22;46848;51.980;5.918;2023-02-15T06:23:14;5.60;77.10
43520;DHT22;46848;51.980;5.918;2023-02-15T06:25:39;5.60;77.20
43520;DHT22;46848;51.980;5.918;2023-02-15T06:28:05;5.50;77.00
43520;DHT22;46848;51.980;5.918;2023-02-15T06:30:31;5.50;77.00
43520;DHT22;46848;51.980;5.918;2023-02-15T06:32:57;5.50;77.00
43520;DHT22;46848;51.980;5.918;2023-02-15T06:35:22;5.60;77.00
43520;DHT22;46848;51.980;5.918;2023-02-15T06:37:48;5.50;77.00
43520;DHT22;46848;51.980;5.918;2023-02-15T06:40:14;5.50;77.10
43520;DHT22;46848;51.980;5.918;2023-02-15T06:42:41;5.50;77.00
43520;DHT22;46848;51.980;5.918;2023-02-15T06:45:08;5.40;77.10
43520;DHT22;46848;51.980;5.918;2023-02-15T06:47:33;5.40;77.10
43520;DHT22;46848;51.980;5.918;2023-02-15T06:49:59;5.40;77.10
43520;DHT22;46848;51.980;5.918;2023-02-15T06:52:25;5.40;77.20
43520;DHT22;46848;51.980;5.918;2023-02-15T06:54:51;5.30;77.30
43520;DHT22;46848;51.980;5.918;2023-02-15T06:57:17;5.30;77.20
43520;DHT22;46848;51.980;5.918;2023-02-15T06:59:42;5.30;77.20
43520;DHT22;46848;51.980;5.918;2023-02-15T07:02:10;5.30;77.30
43520;DHT22;46848;51.980;5.918;2023-02-15T07:04:36;5.30;77.30
43520;DHT22;46848;51.980;5.918;2023-02-15T07:07:02;5.30;77.20
43520;DHT22;46848;51.980;5.918;2023-02-15T07:09:27;5.30;77.20
43520;DHT22;46848;51.980;5.918;2023-02-15T07:11:53;5.30;77.30
43520;DHT22;46848;51.980;5.918;2023-02-15T07:14:37;5.30;77.90
43520;DHT22;46848;51.980;5.918;2023-02-15T07:17:03;5.30;77.40
43520;DHT22;46848;51.980;5.918;2023-02-15T07:19:28;5.40;77.80
43520;DHT22;46848;51.980;5.918;2023-02-15T07:21:54;5.50;77.90
43520;DHT22;46848;51.980;5.918;2023-02-15T07:24:20;5.70;77.90
43520;DHT22;46848;51.980;5.918;2023-02-15T07:26:45;5.70;77.60
43520;DHT22;46848;51.980;5.918;2023-02-15T07:29:11;5.80;77.50
43520;DHT22;46848;51.980;5.918;2023-02-15T07:31:36;5.90;77.50
43520;DHT22;46848;51.980;5.918;2023-02-15T07:34:02;6.00;77.50
43520;DHT22;46848;51.980;5.918;2023-02-15T07:36:28;6.10;77.10
43520;DHT22;46848;51.980;5.918;2023-02-15T07:38:53;6.20;77.10
43520;DHT22;46848;51.980;5.918;2023-02-15T07:41:19;6.30;76.90
43520;DHT22;46848;51.980;5.918;2023-02-15T07:43:45;6.40;76.70
43520;DHT22;46848;51.980;5.918;2023-02-15T07:46:13;6.50;76.50
43520;DHT22;46848;51.980;5.918;2023-02-15T07:48:39;6.60;76.40
43520;DHT22;46848;51.980;5.918;2023-02-15T07:51:07;6.70;76.20
43520;DHT22;46848;51.980;5.918;2023-02-15T07:53:35;6.70;75.90
43520;DHT22;46848;51.980;5.918;2023-02-15T07:56:02;6.80;75.90
43520;DHT22;46848;51.980;5.918;2023-02-15T07:58:28;6.90;75.60
43520;DHT22;46848;51.980;5.918;2023-02-15T08:01:13;7.00;75.30
43520;DHT22;46848;51.980;5.918;2023-02-15T08:03:38;7.10;75.20
43520;DHT22;46848;51.980;5.918;2023-02-15T08:06:04;7.30;75.20
43520;DHT22;46848;51.980;5.918;2023-02-15T08:08:30;7.70;75.20
43520;DHT22;46848;51.980;5.918;2023-02-15T08:11:14;8.30;74.30
43520;DHT22;46848;51.980;5.918;2023-02-15T08:14:10;9.00;73.00
43520;DHT22;46848;51.980;5.918;2023-02-15T08:16:46;9.80;71.40
43520;DHT22;46848;51.980;5.918;2023-02-15T08:19:25;10.20;70.10
43520;DHT22;46848;51.980;5.918;2023-02-15T08:21:53;10.60;68.90
43520;DHT22;46848;51.980;5.918;2023-02-15T08:24:21;10.90;67.00
43520;DHT22;46848;51.980;5.918;2023-02-15T08:26:48;11.20;66.70
43520;DHT22;46848;51.980;5.918;2023-02-15T08:29:24;11.60;66.00
43520;DHT22;46848;51.980;5.918;2023-02-15T08:31:56;11.90;65.00
43520;DHT22;46848;51.980;5.918;2023-02-15T08:34:28;12.30;64.40
43520;DHT22;46848;51.980;5.918;2023-02-15T08:36:54;12.50;63.80
43520;DHT22;46848;51.980;5.918;2023-02-15T08:39:48;12.80;63.70
43520;DHT22;46848;51.980;5.918;2023-02-15T08:42:13;13.00;62.60
43520;DHT22;46848;51.980;5.918;2023-02-15T08:44:39;13.20;61.40
43520;DHT22;46848;51.980;5.918;2023-02-15T08:47:05;13.20;62.00
43520;DHT22;46848;51.980;5.918;2023-02-15T08:49:33;13.40;62.80
43520;DHT22;46848;51.980;5.918;2023-02-15T08:51:59;13.70;62.00
43520;DHT22;46848;51.980;5.918;2023-02-15T08:54:25;13.90;61.70
43520;DHT22;46848;51.980;5.918;2023-02-15T08:56:51;14.10;61.80
43520;DHT22;46848;51.980;5.918;2023-02-15T08:59:21;14.40;61.60
43520;DHT22;46848;51.980;5.918;2023-02-15T09:01:52;14.60;60.50
43520;DHT22;46848;51.980;5.918;2023-02-15T09:04:20;14.50;61.20
43520;DHT22;46848;51.980;5.918;2023-02-15T09:06:48;14.50;61.70
43520;DHT22;46848;51.980;5.918;2023-02-15T09:09:15;14.50;62.40
43520;DHT22;46848;51.980;5.918;2023-02-15T09:11:43;14.60;62.60
43520;DHT22;46848;51.980;5.918;2023-02-15T09:14:11;14.70;62.80
43520;DHT22;46848;51.980;5.918;2023-02-15T09:16:41;14.80;63.80
43520;DHT22;46848;51.980;5.918;2023-02-15T09:19:07;14.80;64.10
43520;DHT22;46848;51.980;5.918;2023-02-15T09:21:36;14.90;64.50
43520;DHT22;46848;51.980;5.918;2023-02-15T09:24:07;15.00;65.10
43520;DHT22;46848;51.980;5.918;2023-02-15T09:26:39;15.00;65.60
43520;DHT22;46848;51.980;5.918;2023-02-15T09:29:06;15.00;66.10
43520;DHT22;46848;51.980;5.918;2023-02-15T09:31:40;15.00;66.90
43520;DHT22;46848;51.980;5.918;2023-02-15T09:34:09;15.00;66.60
43520;DHT22;46848;51.980;5.918;2023-02-15T09:36:37;14.90;68.20
43520;DHT22;46848;51.980;5.918;2023-02-15T09:39:40;14.80;68.10
43520;DHT22;46848;51.980;5.918;2023-02-15T09:45:00;14.80;68.70
43520;DHT22;46848;51.980;5.918;2023-02-15T09:47:52;14.80;70.30
43520;DHT22;46848;51.980;5.918;2023-02-15T10:04:18;15.20;70.90
43520;DHT22;46848;51.980;5.918;2023-02-15T10:07:21;15.30;71.00
43520;DHT22;46848;51.980;5.918;2023-02-15T10:21:07;15.80;69.60
43520;DHT22;46848;51.980;5.918;2023-02-15T10:23:43;15.90;69.30
43520;DHT22;46848;51.980;5.918;2023-02-15T10:34:38;16.40;69.00
43520;DHT22;46848;51.980;5.918;2023-02-15T10:37:46;16.60;68.00
43520;DHT22;46848;51.980;5.918;2023-02-15T11:06:20;17.40;66.00
43520;DHT22;46848;51.980;5.918;2023-02-15T11:09:13;17.60;66.00
43520;DHT22;46848;51.980;5.918;2023-02-15T11:11:47;17.70;64.70
43520;DHT22;46848;51.980;5.918;2023-02-15T11:17:26;18.00;64.70
43520;DHT22;46848;51.980;5.918;2023-02-15T11:22:22;18.10;63.70
43520;DHT22;46848;51.980;5.918;2023-02-15T11:24:48;18.20;63.60
43520;DHT22;46848;51.980;5.918;2023-02-15T11:27:30;18.20;61.00
43520;DHT22;46848;51.980;5.918;2023-02-15T11:30:04;18.00;59.70
43520;DHT22;46848;51.980;5.918;2023-02-15T11:32:39;18.00;61.40
43520;DHT22;46848;51.980;5.918;2023-02-15T11:38:32;17.80;60.70
43520;DHT22;46848;51.980;5.918;2023-02-15T11:40:53;17.70;60.90
43520;DHT22;46848;51.980;5.918;2023-02-15T11:46:02;17.90;60.20
43520;DHT22;46848;51.980;5.918;2023-02-15T11:48:30;17.90;60.80
43520;DHT22;46848;51.980;5.918;2023-02-15T11:50:56;17.90;59.20
43520;DHT22;46848;51.980;5.918;2023-02-15T11:53:23;18.00;60.00
43520;DHT22;46848;51.980;5.918;2023-02-15T11:55:53;18.00;58.90
43520;DHT22;46848;51.980;5.918;2023-02-15T12:01:15;18.00;58.10
43520;DHT22;46848;51.980;5.918;2023-02-15T12:03:48;18.00;57.70
43520;DHT22;46848;51.980;5.918;2023-02-15T12:06:20;17.80;55.70
43520;DHT22;46848;51.980;5.918;2023-02-15T12:11:53;17.50;57.80
43520;DHT22;46848;51.980;5.918;2023-02-15T12:14:19;17.50;57.40
43520;DHT22;46848;51.980;5.918;2023-02-15T12:17:23;17.40;58.70
43520;DHT22;46848;51.980;5.918;2023-02-15T12:19:50;17.30;58.10
43520;DHT22;46848;51.980;5.918;2023-02-15T12:22:24;17.30;58.60
43520;DHT22;46848;51.980;5.918;2023-02-15T12:25:02;17.40;58.30
43520;DHT22;46848;51.980;5.918;2023-02-15T12:27:32;17.40;58.20
43520;DHT22;46848;51.980;5.918;2023-02-15T12:32:52;17.50;58.00
43520;DHT22;46848;51.980;5.918;2023-02-15T12:35:31;17.60;57.10
43520;DHT22;46848;51.980;5.918;2023-02-15T12:40:37;17.60;55.70
43520;DHT22;46848;51.980;5.918;2023-02-15T12:43:04;17.50;55.50
43520;DHT22;46848;51.980;5.918;2023-02-15T12:45:35;17.40;56.50
43520;DHT22;46848;51.980;5.918;2023-02-15T12:50:43;17.40;56.50
43520;DHT22;46848;51.980;5.918;2023-02-15T12:53:19;17.40;56.80
43520;DHT22;46848;51.980;5.918;2023-02-15T12:58:18;17.50;56.20
43520;DHT22;46848;51.980;5.918;2023-02-15T13:00:45;17.60;56.60
43520;DHT22;46848;51.980;5.918;2023-02-15T13:03:19;17.60;56.70
43520;DHT22;46848;51.980;5.918;2023-02-15T13:05:50;17.70;56.50
43520;DHT22;46848;51.980;5.918;2023-02-15T13:08:35;17.60;56.60
43520;DHT22;46848;51.980;5.918;2023-02-15T13:11:09;17.60;55.60
43520;DHT22;46848;51.980;5.918;2023-02-15T13:14:00;17.60;56.10
43520;DHT22;46848;51.980;5.918;2023-02-15T13:16:53;17.60;55.70
43520;DHT22;46848;51.980;5.918;2023-02-15T13:19:43;17.40;54.80
43520;DHT22;46848;51.980;5.918;2023-02-15T13:22:16;17.40;55.30
43520;DHT22;46848;51.980;5.918;2023-02-15T13:24:51;17.30;55.70
43520;DHT22;46848;51.980;5.918;2023-02-15T13:27:25;17.30;55.90
43520;DHT22;46848;51.980;5.918;2023-02-15T13:29:58;17.30;56.30
43520;DHT22;46848;51.980;5.918;2023-02-15T13:34:56;17.30;56.50
43520;DHT22;46848;51.980;5.918;2023-02-15T13:37:45;17.30;56.30
43520;DHT22;46848;51.980;5.918;2023-02-15T13:43:04;17.00;55.50
43520;DHT22;46848;51.980;5.918;2023-02-15T13:51:46;16.60;56.00
43520;DHT22;46848;51.980;5.918;2023-02-15T13:54:42;16.50;56.50
43520;DHT22;46848;51.980;5.918;2023-02-15T13:57:28;16.60;56.90
43520;DHT22;46848;51.980;5.918;2023-02-15T14:00:03;16.60;57.00
43520;DHT22;46848;51.980;5.918;2023-02-15T14:02:57;16.50;55.90
43520;DHT22;46848;51.980;5.918;2023-02-15T14:16:41;16.20;56.10
43520;DHT22;46848;51.980;5.918;2023-02-15T14:19:19;16.20;56.30
43520;DHT22;46848;51.980;5.918;2023-02-15T14:27:20;16.20;57.30
43520;DHT22;46848;51.980;5.918;2023-02-15T14:29:56;16.20;56.60
43520;DHT22;46848;51.980;5.918;2023-02-15T14:34:59;16.10;57.00
43520;DHT22;46848;51.980;5.918;2023-02-15T14:37:51;16.10;56.90
43520;DHT22;46848;51.980;5.918;2023-02-15T14:48:57;16.10;57.20
43520;DHT22;46848;51.980;5.918;2023-02-15T14:57:20;16.10;57.30
43520;DHT22;46848;51.980;5.918;2023-02-15T15:02:40;16.00;57.90
43520;DHT22;46848;51.980;5.918;2023-02-15T15:05:45;16.00;57.50
43520;DHT22;46848;51.980;5.918;2023-02-15T15:08:04;16.00;57.70
43520;DHT22;46848;51.980;5.918;2023-02-15T15:10:44;16.00;57.70
43520;DHT22;46848;51.980;5.918;2023-02-15T15:13:36;15.90;57.70
43520;DHT22;46848;51.980;5.918;2023-02-15T15:18:53;15.80;57.90
43520;DHT22;46848;51.980;5.918;2023-02-15T15:27:41;15.60;58.20
43520;DHT22;46848;51.980;5.918;2023-02-15T15:35:36;15.60;58.20
43520;DHT22;46848;51.980;5.918;2023-02-15T15:48:49;15.40;57.50
43520;DHT22;46848;51.980;5.918;2023-02-15T15:51:33;15.30;57.50
43520;DHT22;46848;51.980;5.918;2023-02-15T15:54:01;15.30;57.60
43520;DHT22;46848;51.980;5.918;2023-02-15T15:56:30;15.30;57.90
43520;DHT22;46848;51.980;5.918;2023-02-15T15:59:04;15.30;57.80
43520;DHT22;46848;51.980;5.918;2023-02-15T16:01:39;15.20;57.80
43520;DHT22;46848;51.980;5.918;2023-02-15T16:04:12;15.20;57.80
43520;DHT22;46848;51.980;5.918;2023-02-15T16:06:38;15.10;57.80
43520;DHT22;46848;51.980;5.918;2023-02-15T16:09:11;15.10;58.00
43520;DHT22;46848;51.980;5.918;2023-02-15T16:11:37;15.00;58.20
43520;DHT22;46848;51.980;5.918;2023-02-15T16:16:51;14.80;58.10
43520;DHT22;46848;51.980;5.918;2023-02-15T16:19:23;14.80;58.30
43520;DHT22;46848;51.980;5.918;2023-02-15T16:21:50;14.80;59.00
43520;DHT22;46848;51.980;5.918;2023-02-15T16:27:32;14.70;58.30
43520;DHT22;46848;51.980;5.918;2023-02-15T16:30:17;14.70;58.40
43520;DHT22;46848;51.980;5.918;2023-02-15T16:32:44;14.60;58.40
43520;DHT22;46848;51.980;5.918;2023-02-15T16:35:15;14.50;58.50
43520;DHT22;46848;51.980;5.918;2023-02-15T16:37:41;14.50;58.50
43520;DHT22;46848;51.980;5.918;2023-02-15T16:40:27;14.50;58.70
43520;DHT22;46848;51.980;5.918;2023-02-15T16:43:03;14.50;58.70
43520;DHT22;46848;51.980;5.918;2023-02-15T16:45:30;14.40;58.80
43520;DHT22;46848;51.980;5.918;2023-02-15T16:47:59;14.40;58.90
43520;DHT22;46848;51.980;5.918;2023-02-15T16:50:32;14.40;59.10
43520;DHT22;46848;51.980;5.918;2023-02-15T16:52:58;14.30;59.00
43520;DHT22;46848;51.980;5.918;2023-02-15T16:55:26;14.20;58.90
43520;DHT22;46848;51.980;5.918;2023-02-15T16:57:59;14.10;59.40
43520;DHT22;46848;51.980;5.918;2023-02-15T17:00:28;14.00;59.70
43520;DHT22;46848;51.980;5.918;2023-02-15T17:03:04;14.00;59.90
43520;DHT22;46848;51.980;5.918;2023-02-15T17:08:29;13.90;60.00
43520;DHT22;46848;51.980;5.918;2023-02-15T17:13:23;13.80;60.40
43520;DHT22;46848;51.980;5.918;2023-02-15T17:18:33;13.70;60.60
43520;DHT22;46848;51.980;5.918;2023-02-15T17:21:08;13.70;60.70
43520;DHT22;46848;51.980;5.918;2023-02-15T17:23:42;13.60;60.70
43520;DHT22;46848;51.980;5.918;2023-02-15T17:28:44;13.50;60.90
43520;DHT22;46848;51.980;5.918;2023-02-15T17:31:13;13.40;60.90
43520;DHT22;46848;51.980;5.918;2023-02-15T17:33:39;13.40;61.20
43520;DHT22;46848;51.980;5.918;2023-02-15T17:36:11;13.30;61.40
43520;DHT22;46848;51.980;5.918;2023-02-15T17:38:40;13.20;61.40
43520;DHT22;46848;51.980;5.918;2023-02-15T17:41:24;13.20;61.50
43520;DHT22;46848;51.980;5.918;2023-02-15T17:43:50;13.20;61.50
43520;DHT22;46848;51.980;5.918;2023-02-15T17:46:15;13.20;61.50
43520;DHT22;46848;51.980;5.918;2023-02-15T17:48:46;13.10;61.40
43520;DHT22;46848;51.980;5.918;2023-02-15T17:51:14;13.10;61.70
43520;DHT22;46848;51.980;5.918;2023-02-15T17:53:41;13.00;61.60
43520;DHT22;46848;51.980;5.918;2023-02-15T17:56:27;13.00;61.80
43520;DHT22;46848;51.980;5.918;2023-02-15T17:58:53;12.90;62.00
43520;DHT22;46848;51.980;5.918;2023-02-15T18:01:19;12.90;62.40
43520;DHT22;46848;51.980;5.918;2023-02-15T18:04:04;12.90;62.40
43520;DHT22;46848;51.980;5.918;2023-02-15T18:06:49;12.80;62.30
43520;DHT22;46848;51.980;5.918;2023-02-15T18:09:34;12.80;62.30
43520;DHT22;46848;51.980;5.918;2023-02-15T18:12:24;12.70;62.90
43520;DHT22;46848;51.980;5.918;2023-02-15T18:14:50;12.70;62.20
43520;DHT22;46848;51.980;5.918;2023-02-15T18:17:16;12.70;62.30
43520;DHT22;46848;51.980;5.918;2023-02-15T18:19:44;12.70;62.20
43520;DHT22;46848;51.980;5.918;2023-02-15T18:22:12;12.60;62.30
43520;DHT22;46848;51.980;5.918;2023-02-15T18:24:39;12.60;63.00
43520;DHT22;46848;51.980;5.918;2023-02-15T18:27:05;12.60;62.40
43520;DHT22;46848;51.980;5.918;2023-02-15T18:29:31;12.50;62.40
43520;DHT22;46848;51.980;5.918;2023-02-15T18:31:58;12.60;62.40
43520;DHT22;46848;51.980;5.918;2023-02-15T18:34:29;12.50;62.40
43520;DHT22;46848;51.980;5.918;2023-02-15T18:36:57;12.50;62.40
43520;DHT22;46848;51.980;5.918;2023-02-15T18:41:58;12.50;62.50
43520;DHT22;46848;51.980;5.918;2023-02-15T18:44:25;12.50;62.60
43520;DHT22;46848;51.980;5.918;2023-02-15T18:46:50;12.40;62.60
43520;DHT22;46848;51.980;5.918;2023-02-15T18:49:16;12.40;62.70
43520;DHT22;46848;51.980;5.918;2023-02-15T18:51:42;12.40;62.80
43520;DHT22;46848;51.980;5.918;2023-02-15T18:54:24;12.40;62.80
43520;DHT22;46848;51.980;5.918;2023-02-15T18:56:57;12.30;62.70
43520;DHT22;46848;51.980;5.918;2023-02-15T18:59:26;12.30;62.80
43520;DHT22;46848;51.980;5.918;2023-02-15T19:01:52;12.30;62.80
43520;DHT22;46848;51.980;5.918;2023-02-15T19:04:18;12.30;62.90
43520;DHT22;46848;51.980;5.918;2023-02-15T19:06:46;12.20;62.90
43520;DHT22;46848;51.980;5.918;2023-02-15T19:09:16;12.20;63.00
43520;DHT22;46848;51.980;5.918;2023-02-15T19:11:48;12.20;63.10
43520;DHT22;46848;51.980;5.918;2023-02-15T19:14:28;12.20;63.20
43520;DHT22;46848;51.980;5.918;2023-02-15T19:16:55;12.10;63.20
43520;DHT22;46848;51.980;5.918;2023-02-15T19:19:22;12.10;63.30
43520;DHT22;46848;51.980;5.918;2023-02-15T19:21:48;12.10;63.40
43520;DHT22;46848;51.980;5.918;2023-02-15T19:24:20;12.00;63.40
43520;DHT22;46848;51.980;5.918;2023-02-15T19:26:47;12.00;63.40
43520;DHT22;46848;51.980;5.918;2023-02-15T19:29:18;12.00;63.40
43520;DHT22;46848;51.980;5.918;2023-02-15T19:31:44;11.90;63.50